createdAt,value
2022-12-18T00:00:32.058Z,29.90
2022-12-18T00:01:39.508Z,29.90
2022-12-18T00:02:42.619Z,29.90
2022-12-18T00:03:46.264Z,29.90
2022-12-18T00:04:50.535Z,29.90
2022-12-18T00:05:53.554Z,29.90
2022-12-18T00:06:57.613Z,29.90
2022-12-18T00:08:04.096Z,29.90
2022-12-18T00:09:13.397Z,29.90
2022-12-18T00:10:15.873Z,29.90
2022-12-18T00:11:23.165Z,29.90
2022-12-18T00:12:26.043Z,29.90
2022-12-18T00:13:29.438Z,29.90
2022-12-18T00:14:31.859Z,29.90
2022-12-18T00:15:38.810Z,29.90
2022-12-18T00:16:44.153Z,29.90
2022-12-18T00:17:48.566Z,29.90
2022-12-18T00:18:53.304Z,29.90
2022-12-18T00:19:55.753Z,29.90
2022-12-18T00:21:04.132Z,29.90
2022-12-18T00:22:07.348Z,29.90
2022-12-18T00:23:14.100Z,29.90
2022-12-18T00:24:19.162Z,29.90
2022-12-18T00:25:23.906Z,29.90
2022-12-18T00:26:32.328Z,29.90
2022-12-18T00:27:37.375Z,29.90
2022-12-18T00:28:41.014Z,29.90
2022-12-18T00:29:44.079Z,29.90
2022-12-18T00:30:46.933Z,29.90
2022-12-18T00:31:49.626Z,29.90
2022-12-18T00:32:52.700Z,29.90
2022-12-18T00:34:00.711Z,29.90
2022-12-18T00:35:04.341Z,29.90
2022-12-18T00:36:23.982Z,29.90
2022-12-18T00:37:28.690Z,29.90
2022-12-18T00:38:35.230Z,29.90
2022-12-18T00:39:37.670Z,29.90
2022-12-18T00:40:41.493Z,29.90
2022-12-18T00:42:03.916Z,29.90
2022-12-18T00:43:07.986Z,29.90
2022-12-18T00:44:12.802Z,29.90
2022-12-18T00:45:15.828Z,29.90
2022-12-18T00:46:19.805Z,29.90
2022-12-18T00:47:22.224Z,29.90
2022-12-18T00:48:25.147Z,29.90
2022-12-18T00:49:29.764Z,29.90
2022-12-18T00:50:32.199Z,29.90
2022-12-18T00:51:37.121Z,29.90
2022-12-18T00:52:47.897Z,29.80
2022-12-18T00:53:52.257Z,29.90
2022-12-18T00:54:56.356Z,29.90
2022-12-18T00:56:00.223Z,29.90
2022-12-18T00:57:04.982Z,29.90
2022-12-18T00:58:09.195Z,29.90
2022-12-18T00:59:14.564Z,29.90
2022-12-18T01:00:20.395Z,29.90
2022-12-18T01:01:24.628Z,29.90
2022-12-18T01:02:27.209Z,29.90
2022-12-18T01:03:30.351Z,29.90
2022-12-18T01:04:34.162Z,29.90
2022-12-18T01:05:41.049Z,29.90
2022-12-18T01:06:44.791Z,29.90
2022-12-18T01:07:47.236Z,29.90
2022-12-18T01:08:49.795Z,29.80
2022-12-18T01:09:52.326Z,29.90
2022-12-18T01:10:55.703Z,30.40
2022-12-18T01:11:59.637Z,29.90
2022-12-18T01:13:05.797Z,29.90
2022-12-18T01:14:11.020Z,29.90
2022-12-18T01:15:15.227Z,29.90
2022-12-18T01:16:19.229Z,29.90
2022-12-18T01:17:36.215Z,29.90
2022-12-18T01:18:38.631Z,29.90
2022-12-18T01:19:43.576Z,29.90
2022-12-18T01:20:47.857Z,29.90
2022-12-18T01:21:50.324Z,29.90
2022-12-18T01:22:53.074Z,29.90
2022-12-18T01:23:58.299Z,29.90
2022-12-18T01:25:02.154Z,29.90
2022-12-18T01:26:23.130Z,29.90
2022-12-18T01:27:26.968Z,29.80
2022-12-18T01:28:31.666Z,29.90
2022-12-18T01:29:35.388Z,29.90
2022-12-18T01:30:38.632Z,29.90
2022-12-18T01:31:41.656Z,29.90
2022-12-18T01:32:44.595Z,29.80
2022-12-18T01:33:47.476Z,29.90
2022-12-18T01:34:53.268Z,29.90
2022-12-18T01:35:55.888Z,29.90
2022-12-18T01:36:59.786Z,29.90
2022-12-18T01:38:04.202Z,29.80
2022-12-18T01:39:12.827Z,30.30
2022-12-18T01:40:17.968Z,29.80
2022-12-18T01:41:27.287Z,29.90
2022-12-18T01:42:30.237Z,30.30
2022-12-18T01:43:49.042Z,29.80
2022-12-18T01:45:13.202Z,29.90
2022-12-18T01:46:22.251Z,29.80
2022-12-18T01:47:37.342Z,29.80
2022-12-18T01:48:42.345Z,29.80
2022-12-18T01:49:44.943Z,29.80
2022-12-18T01:50:47.555Z,29.80
2022-12-18T01:51:55.113Z,29.80
2022-12-18T01:53:14.095Z,29.80
2022-12-18T01:54:16.979Z,29.90
2022-12-18T01:55:23.299Z,29.80
2022-12-18T01:56:27.283Z,29.80
2022-12-18T01:57:31.635Z,29.80
2022-12-18T01:58:59.567Z,29.80
2022-12-18T02:00:15.057Z,29.80
2022-12-18T02:01:18.446Z,29.80
2022-12-18T02:02:22.314Z,29.80
2022-12-18T02:03:45.621Z,29.80
2022-12-18T02:04:49.671Z,29.80
2022-12-18T02:06:25.658Z,29.80
2022-12-18T02:07:57.654Z,29.80
2022-12-18T02:09:08.839Z,29.80
2022-12-18T02:10:26.730Z,29.90
2022-12-18T02:11:38.565Z,29.80
2022-12-18T02:13:14.764Z,29.80
2022-12-18T02:14:39.963Z,29.80
2022-12-18T02:15:57.116Z,29.80
2022-12-18T02:17:09.486Z,29.80
2022-12-18T02:18:22.218Z,29.80
2022-12-18T02:19:48.221Z,29.80
2022-12-18T02:21:17.322Z,29.80
2022-12-18T02:22:28.811Z,29.80
2022-12-18T02:23:47.979Z,29.80
2022-12-18T02:25:13.355Z,29.80
2022-12-18T02:26:33.037Z,29.80
2022-12-18T02:27:38.494Z,29.80
2022-12-18T02:28:57.218Z,29.80
2022-12-18T02:30:03.344Z,29.80
2022-12-18T02:31:12.217Z,29.80
2022-12-18T02:32:41.284Z,29.80
2022-12-18T02:33:46.844Z,29.80
2022-12-18T02:34:51.646Z,29.80
2022-12-18T02:35:59.228Z,29.80
2022-12-18T02:37:07.178Z,29.80
2022-12-18T02:39:30.318Z,29.80
2022-12-18T02:40:40.568Z,29.70
2022-12-18T02:41:46.399Z,29.80
2022-12-18T02:42:53.063Z,29.70
2022-12-18T02:44:08.705Z,29.80
2022-12-18T02:45:15.588Z,29.70
2022-12-18T02:46:30.041Z,29.70
2022-12-18T02:47:38.018Z,29.80
2022-12-18T02:48:43.041Z,29.70
2022-12-18T02:49:59.137Z,29.70
2022-12-18T02:51:40.558Z,29.80
2022-12-18T02:52:44.199Z,29.80
2022-12-18T02:54:01.187Z,29.80
2022-12-18T02:55:07.224Z,29.70
2022-12-18T02:56:19.660Z,29.70
2022-12-18T02:57:36.018Z,29.80
2022-12-18T02:58:55.401Z,29.70
2022-12-18T03:00:22.786Z,29.70
2022-12-18T03:01:30.379Z,29.70
2022-12-18T03:02:52.658Z,29.70
2022-12-18T03:04:02.151Z,29.70
2022-12-18T03:05:23.972Z,29.70
2022-12-18T03:06:35.196Z,29.70
2022-12-18T03:08:02.202Z,29.70
2022-12-18T03:09:31.529Z,29.70
2022-12-18T03:10:40.400Z,29.80
2022-12-18T03:12:06.414Z,29.70
2022-12-18T03:13:21.359Z,29.70
2022-12-18T03:14:27.148Z,29.70
2022-12-18T03:15:43.402Z,29.70
2022-12-18T03:16:53.587Z,29.70
2022-12-18T03:18:11.510Z,29.70
2022-12-18T03:19:21.408Z,29.70
2022-12-18T03:20:29.521Z,29.70
2022-12-18T03:21:47.280Z,29.70
2022-12-18T03:22:58.430Z,29.70
2022-12-18T03:24:02.547Z,29.70
2022-12-18T03:25:12.295Z,29.70
2022-12-18T03:26:19.048Z,29.70
2022-12-18T03:27:25.379Z,29.70
2022-12-18T03:28:34.268Z,29.70
2022-12-18T03:29:44.882Z,29.70
2022-12-18T03:30:56.121Z,29.70
2022-12-18T03:32:08.187Z,29.70
2022-12-18T03:33:21.317Z,29.70
2022-12-18T03:34:36.137Z,29.70
2022-12-18T03:35:44.543Z,29.70
2022-12-18T03:36:48.507Z,29.70
2022-12-18T03:37:51.540Z,29.70
2022-12-18T03:38:54.292Z,29.70
2022-12-18T03:39:59.603Z,29.70
2022-12-18T03:41:13.846Z,29.70
2022-12-18T03:44:24.854Z,29.70
2022-12-18T03:45:37.022Z,29.70
2022-12-18T03:47:04.436Z,29.60
2022-12-18T03:48:29.164Z,29.70
2022-12-18T03:50:10.985Z,29.70
2022-12-18T03:51:34.500Z,29.70
2022-12-18T03:53:01.802Z,29.60
2022-12-18T03:54:11.831Z,29.70
2022-12-18T03:55:28.544Z,29.60
2022-12-18T03:56:41.206Z,29.60
2022-12-18T03:57:46.321Z,29.60
2022-12-18T03:58:50.460Z,29.60
2022-12-18T04:00:00.931Z,29.70
2022-12-18T04:01:18.725Z,29.60
2022-12-18T04:02:24.384Z,29.60
2022-12-18T04:03:29.075Z,29.60
2022-12-18T04:04:37.058Z,29.70
2022-12-18T04:05:42.273Z,29.60
2022-12-18T04:06:48.178Z,29.70
2022-12-18T04:07:52.256Z,29.60
2022-12-18T04:08:57.419Z,29.60
2022-12-18T04:10:05.555Z,29.60
2022-12-18T04:11:10.268Z,29.60
2022-12-18T04:12:13.854Z,29.60
2022-12-18T04:13:28.732Z,29.60
2022-12-18T04:14:36.679Z,29.60
2022-12-18T04:15:45.146Z,29.60
2022-12-18T04:16:52.171Z,30.00
2022-12-18T04:17:59.002Z,29.60
2022-12-18T04:19:09.204Z,29.60
2022-12-18T04:20:22.610Z,29.60
2022-12-18T04:21:25.424Z,29.60
2022-12-18T04:22:29.250Z,29.60
2022-12-18T04:23:35.247Z,29.60
2022-12-18T04:24:37.987Z,29.60
2022-12-18T04:25:49.240Z,29.60
2022-12-18T04:26:59.500Z,29.60
2022-12-18T04:28:09.042Z,29.60
2022-12-18T04:29:16.159Z,29.60
2022-12-18T04:30:18.802Z,29.60
2022-12-18T04:31:42.305Z,29.60
2022-12-18T04:32:51.938Z,29.60
2022-12-18T04:33:55.157Z,29.60
2022-12-18T04:34:58.338Z,29.60
2022-12-18T04:36:01.043Z,29.60
2022-12-18T04:37:04.146Z,29.60
2022-12-18T04:38:09.375Z,29.60
2022-12-18T04:39:14.380Z,29.60
2022-12-18T04:40:22.598Z,29.60
2022-12-18T04:41:43.867Z,29.60
2022-12-18T04:42:50.323Z,29.60
2022-12-18T04:43:53.072Z,29.60
2022-12-18T04:44:55.607Z,29.60
2022-12-18T04:46:07.638Z,29.50
2022-12-18T04:47:10.081Z,29.60
2022-12-18T04:48:13.247Z,29.50
2022-12-18T04:49:16.394Z,29.60
2022-12-18T04:50:19.552Z,29.60
2022-12-18T04:51:26.316Z,29.60
2022-12-18T04:52:29.055Z,29.60
2022-12-18T04:53:37.617Z,29.60
2022-12-18T04:54:41.831Z,29.60
2022-12-18T04:55:45.786Z,29.60
2022-12-18T04:56:48.492Z,29.60
2022-12-18T04:57:51.437Z,29.60
2022-12-18T04:58:54.151Z,29.60
2022-12-18T04:59:56.550Z,29.60
2022-12-18T05:01:08.413Z,29.60
2022-12-18T05:02:10.978Z,29.50
2022-12-18T05:03:14.199Z,30.00
2022-12-18T05:04:17.604Z,29.60
2022-12-18T05:05:21.855Z,29.60
2022-12-18T05:06:25.269Z,29.60
2022-12-18T05:07:28.396Z,29.60
2022-12-18T05:08:31.605Z,29.60
2022-12-18T05:09:34.215Z,29.50
2022-12-18T05:10:38.801Z,29.50
2022-12-18T05:11:41.271Z,29.50
2022-12-18T05:13:01.137Z,29.60
2022-12-18T05:14:04.279Z,30.00
2022-12-18T05:15:11.499Z,29.60
2022-12-18T05:16:15.534Z,29.60
2022-12-18T05:17:19.279Z,29.60
2022-12-18T05:18:23.926Z,29.60
2022-12-18T05:19:28.261Z,29.50
2022-12-18T05:20:32.291Z,29.60
2022-12-18T05:21:34.764Z,29.50
2022-12-18T05:22:37.239Z,29.60
2022-12-18T05:23:40.701Z,29.60
2022-12-18T05:24:44.691Z,29.50
2022-12-18T05:25:58.405Z,29.60
2022-12-18T05:27:01.227Z,29.60
2022-12-18T05:28:04.346Z,29.60
2022-12-18T05:29:08.467Z,29.60
2022-12-18T05:30:11.726Z,29.50
2022-12-18T05:31:15.245Z,29.50
2022-12-18T05:32:19.298Z,29.50
2022-12-18T05:33:23.428Z,29.50
2022-12-18T05:34:27.530Z,29.50
2022-12-18T05:35:30.046Z,29.50
2022-12-18T05:36:36.381Z,29.60
2022-12-18T05:37:44.007Z,29.60
2022-12-18T05:38:47.010Z,29.50
2022-12-18T05:39:51.851Z,29.60
2022-12-18T05:40:54.421Z,29.60
2022-12-18T05:41:56.930Z,29.60
2022-12-18T05:42:59.364Z,29.50
2022-12-18T05:44:02.234Z,29.50
2022-12-18T05:45:06.170Z,29.60
2022-12-18T05:46:15.897Z,29.60
2022-12-18T05:47:19.275Z,29.60
2022-12-18T05:48:25.163Z,29.60
2022-12-18T05:49:28.097Z,29.50
2022-12-18T05:50:30.946Z,30.00
2022-12-18T05:51:41.086Z,29.60
2022-12-18T05:52:45.084Z,29.50
2022-12-18T05:53:48.218Z,29.50
2022-12-18T05:54:50.652Z,29.50
2022-12-18T05:56:00.515Z,29.60
2022-12-18T05:57:03.087Z,29.60
2022-12-18T05:58:07.045Z,29.60
2022-12-18T05:59:10.442Z,30.00
2022-12-18T06:00:13.807Z,29.50
2022-12-18T06:01:23.724Z,29.50
2022-12-18T06:02:26.647Z,29.50
2022-12-18T06:03:38.027Z,29.50
2022-12-18T06:04:40.573Z,29.50
2022-12-18T06:05:44.868Z,29.50
2022-12-18T06:06:48.547Z,29.60
2022-12-18T06:07:53.799Z,29.60
2022-12-18T06:08:57.664Z,29.50
2022-12-18T06:10:00.177Z,29.60
2022-12-18T06:11:06.876Z,29.50
2022-12-18T06:12:10.233Z,29.60
2022-12-18T06:13:14.331Z,29.50
2022-12-18T06:14:18.240Z,29.60
2022-12-18T06:15:20.685Z,29.50
2022-12-18T06:16:27.392Z,29.50
2022-12-18T06:17:31.374Z,29.60
2022-12-18T06:18:35.010Z,29.50
2022-12-18T06:19:40.384Z,29.50
2022-12-18T06:20:43.899Z,29.50
2022-12-18T06:21:46.839Z,29.60
2022-12-18T06:22:49.419Z,29.50
2022-12-18T06:23:52.415Z,29.50
2022-12-18T06:24:57.568Z,29.60
2022-12-18T06:26:04.417Z,29.50
2022-12-18T06:27:08.813Z,29.60
2022-12-18T06:28:12.483Z,29.50
2022-12-18T06:29:15.251Z,29.50
2022-12-18T06:30:17.926Z,29.60
2022-12-18T06:31:20.470Z,29.50
2022-12-18T06:32:25.190Z,29.60
2022-12-18T06:33:29.443Z,30.00
2022-12-18T06:34:32.243Z,29.50
2022-12-18T06:35:36.594Z,29.60
2022-12-18T06:36:40.744Z,29.50
2022-12-18T06:37:44.430Z,29.50
2022-12-18T06:38:50.343Z,29.50
2022-12-18T06:39:54.935Z,29.60
2022-12-18T06:41:01.345Z,29.50
2022-12-18T06:42:04.465Z,29.50
2022-12-18T06:43:07.292Z,29.60
2022-12-18T06:44:10.519Z,29.60
2022-12-18T06:45:15.186Z,29.50
2022-12-18T06:46:17.659Z,29.50
2022-12-18T06:47:24.514Z,29.60
2022-12-18T06:48:26.984Z,29.50
2022-12-18T06:49:32.702Z,29.50
2022-12-18T06:50:55.535Z,29.50
2022-12-18T06:51:58.673Z,29.60
2022-12-18T06:53:05.814Z,29.60
2022-12-18T06:54:10.879Z,29.50
2022-12-18T06:55:14.754Z,29.50
2022-12-18T06:56:18.893Z,29.60
2022-12-18T06:57:22.282Z,29.60
2022-12-18T06:58:25.082Z,29.50
2022-12-18T06:59:28.878Z,29.60
2022-12-18T07:00:32.127Z,29.50
2022-12-18T07:01:34.659Z,29.60
2022-12-18T07:02:57.223Z,29.50
2022-12-18T07:04:00.440Z,29.50
2022-12-18T07:05:08.981Z,29.60
2022-12-18T07:06:18.016Z,29.50
2022-12-18T07:07:20.473Z,29.60
2022-12-18T07:08:24.382Z,29.60
2022-12-18T07:09:26.902Z,29.60
2022-12-18T07:10:30.447Z,29.60
2022-12-18T07:11:35.660Z,29.50
2022-12-18T07:12:38.524Z,29.50
2022-12-18T07:13:42.665Z,29.50
2022-12-18T07:14:46.248Z,29.50
2022-12-18T07:15:50.550Z,29.60
2022-12-18T07:16:53.053Z,29.50
2022-12-18T07:17:56.557Z,29.60
2022-12-18T07:19:03.003Z,29.60
2022-12-18T07:20:08.918Z,29.50
2022-12-18T07:21:15.477Z,29.60
2022-12-18T07:22:18.087Z,29.60
2022-12-18T07:23:22.395Z,29.60
2022-12-18T07:24:26.542Z,29.60
2022-12-18T07:25:30.362Z,29.60
2022-12-18T07:26:35.165Z,29.50
2022-12-18T07:27:38.908Z,29.60
2022-12-18T07:28:42.995Z,29.50
2022-12-18T07:29:48.404Z,29.50
2022-12-18T07:30:50.941Z,29.50
2022-12-18T07:31:54.927Z,29.50
2022-12-18T07:32:57.374Z,29.60
2022-12-18T07:34:01.500Z,29.50
2022-12-18T07:35:04.251Z,29.50
2022-12-18T07:36:10.346Z,29.50
2022-12-18T07:37:13.134Z,29.50
2022-12-18T07:38:15.525Z,29.60
2022-12-18T07:39:19.387Z,29.50
2022-12-18T07:40:21.916Z,29.60
2022-12-18T07:41:24.792Z,29.50
2022-12-18T07:42:33.264Z,29.50
2022-12-18T07:43:39.531Z,29.50
2022-12-18T07:44:42.270Z,29.60
2022-12-18T07:45:45.033Z,29.50
2022-12-18T07:46:49.372Z,29.50
2022-12-18T07:47:52.813Z,29.60
2022-12-18T07:48:55.298Z,29.50
2022-12-18T07:50:03.047Z,29.60
2022-12-18T07:51:09.601Z,29.50
2022-12-18T07:52:20.264Z,29.60
2022-12-18T07:53:25.525Z,29.50
2022-12-18T07:54:29.739Z,29.50
2022-12-18T07:55:54.741Z,29.50
2022-12-18T07:56:55.269Z,29.60
2022-12-18T07:58:01.042Z,29.60
2022-12-18T07:59:03.816Z,29.60
2022-12-18T08:00:09.037Z,29.50
2022-12-18T08:01:15.395Z,29.60
2022-12-18T08:02:29.395Z,29.60
2022-12-18T08:03:34.312Z,30.00
2022-12-18T08:04:39.402Z,29.60
2022-12-18T08:05:44.802Z,29.60
2022-12-18T08:06:48.214Z,29.60
2022-12-18T08:07:52.594Z,29.60
2022-12-18T08:08:57.329Z,29.60
2022-12-18T08:09:59.786Z,29.50
2022-12-18T08:11:04.010Z,29.60
2022-12-18T08:12:09.327Z,29.60
2022-12-18T08:13:11.813Z,29.50
2022-12-18T08:14:15.819Z,29.50
2022-12-18T08:15:18.954Z,29.60
2022-12-18T08:16:22.763Z,29.50
2022-12-18T08:17:27.235Z,29.50
2022-12-18T08:18:30.200Z,29.60
2022-12-18T08:19:35.703Z,29.60
2022-12-18T08:20:39.555Z,29.60
2022-12-18T08:21:45.531Z,29.60
2022-12-18T08:22:49.487Z,29.60
2022-12-18T08:23:55.288Z,29.60
2022-12-18T08:24:58.419Z,29.60
2022-12-18T08:26:02.336Z,29.50
2022-12-18T08:28:27.576Z,29.50
2022-12-18T08:29:31.484Z,29.50
2022-12-18T08:30:36.706Z,29.60
2022-12-18T08:31:39.603Z,29.60
2022-12-18T08:32:42.119Z,29.60
2022-12-18T08:33:45.618Z,29.50
2022-12-18T08:34:57.441Z,29.60
2022-12-18T08:36:01.663Z,29.60
2022-12-18T08:37:04.606Z,29.60
2022-12-18T08:38:07.382Z,29.60
2022-12-18T08:39:10.209Z,29.70
2022-12-18T08:40:16.315Z,29.60
2022-12-18T08:41:20.075Z,29.60
2022-12-18T08:42:42.517Z,29.50
2022-12-18T08:44:04.964Z,29.60
2022-12-18T08:45:10.226Z,29.60
2022-12-18T08:46:14.671Z,29.60
2022-12-18T08:47:20.207Z,29.60
2022-12-18T08:48:23.560Z,29.60
2022-12-18T08:49:32.194Z,29.60
2022-12-18T08:50:35.085Z,29.50
2022-12-18T08:51:38.455Z,29.60
2022-12-18T08:52:42.042Z,29.60
2022-12-18T08:53:46.525Z,29.50
2022-12-18T08:54:50.026Z,29.60
2022-12-18T08:55:55.051Z,29.60
2022-12-18T08:56:58.297Z,29.50
2022-12-18T08:58:01.364Z,29.50
2022-12-18T08:59:05.944Z,29.60
2022-12-18T09:00:11.079Z,29.60
2022-12-18T09:01:15.815Z,29.60
2022-12-18T09:02:18.562Z,29.60
2022-12-18T09:03:23.591Z,29.50
2022-12-18T09:04:26.503Z,29.60
2022-12-18T09:05:29.291Z,29.60
2022-12-18T09:06:32.946Z,29.60
2022-12-18T09:07:35.473Z,29.60
2022-12-18T09:08:40.875Z,29.50
2022-12-18T09:09:44.054Z,29.50
2022-12-18T09:10:49.231Z,29.60
2022-12-18T09:11:51.622Z,29.60
2022-12-18T09:12:54.008Z,29.60
2022-12-18T09:13:58.949Z,29.60
2022-12-18T09:15:01.413Z,29.60
2022-12-18T09:16:04.564Z,29.60
2022-12-18T09:17:07.394Z,29.60
2022-12-18T09:18:10.477Z,29.60
2022-12-18T09:19:13.548Z,29.60
2022-12-18T09:20:16.130Z,29.60
2022-12-18T09:21:22.782Z,29.60
2022-12-18T09:22:25.246Z,29.60
2022-12-18T09:23:29.009Z,29.60
2022-12-18T09:24:33.332Z,29.60
2022-12-18T09:25:37.938Z,29.60
2022-12-18T09:26:43.208Z,29.60
2022-12-18T09:27:51.548Z,29.60
2022-12-18T09:28:56.226Z,29.60
2022-12-18T09:29:58.691Z,29.60
2022-12-18T09:31:05.759Z,29.60
2022-12-18T09:32:08.317Z,29.60
2022-12-18T09:33:10.986Z,29.60
2022-12-18T09:34:19.441Z,29.60
2022-12-18T09:35:22.771Z,29.60
2022-12-18T09:36:25.439Z,29.60
2022-12-18T09:37:29.132Z,29.60
2022-12-18T09:38:31.758Z,29.60
2022-12-18T09:39:36.950Z,29.60
2022-12-18T09:40:54.320Z,29.60
2022-12-18T09:41:59.737Z,29.60
2022-12-18T09:43:05.782Z,29.60
2022-12-18T09:44:22.306Z,29.60
2022-12-18T09:45:27.164Z,29.60
2022-12-18T09:46:41.702Z,29.60
2022-12-18T09:47:46.273Z,29.60
2022-12-18T09:49:06.889Z,29.60
2022-12-18T09:50:33.652Z,29.60
2022-12-18T09:51:44.534Z,29.70
2022-12-18T09:52:53.422Z,29.60
2022-12-18T09:54:12.471Z,29.60
2022-12-18T09:55:37.399Z,29.60
2022-12-18T09:56:43.378Z,29.60
2022-12-18T09:57:55.845Z,29.60
2022-12-18T09:59:01.839Z,29.60
2022-12-18T10:00:23.676Z,29.60
2022-12-18T10:01:36.353Z,29.60
2022-12-18T10:02:44.596Z,29.60
2022-12-18T10:03:47.846Z,29.60
2022-12-18T10:05:07.386Z,29.60
2022-12-18T10:06:33.279Z,29.60
2022-12-18T10:07:48.432Z,29.60
2022-12-18T10:09:11.382Z,29.60
2022-12-18T10:10:31.797Z,29.60
2022-12-18T10:12:07.068Z,29.60
2022-12-18T10:13:47.701Z,29.60
2022-12-18T10:15:02.637Z,29.60
2022-12-18T10:16:18.385Z,29.60
2022-12-18T10:17:27.731Z,29.60
2022-12-18T10:18:56.280Z,29.60
2022-12-18T10:20:28.605Z,29.60
2022-12-18T10:22:09.577Z,29.60
2022-12-18T10:23:46.407Z,29.60
2022-12-18T10:24:56.379Z,29.60
2022-12-18T10:26:13.595Z,29.60
2022-12-18T10:27:22.346Z,29.60
2022-12-18T10:28:26.285Z,29.60
2022-12-18T10:29:30.243Z,29.60
2022-12-18T10:30:32.681Z,29.60
2022-12-18T10:31:35.186Z,29.60
2022-12-18T10:32:38.648Z,29.60
2022-12-18T10:33:42.419Z,29.70
2022-12-18T10:34:53.025Z,29.60
2022-12-18T10:36:02.262Z,29.60
2022-12-18T10:37:13.925Z,29.60
2022-12-18T10:38:17.106Z,29.60
2022-12-18T10:39:24.837Z,29.60
2022-12-18T10:40:30.191Z,29.60
2022-12-18T10:41:33.556Z,29.60
2022-12-18T10:42:45.012Z,29.60
2022-12-18T10:43:49.294Z,29.60
2022-12-18T10:45:04.475Z,29.60
2022-12-18T10:46:11.406Z,29.60
2022-12-18T10:47:20.346Z,29.60
2022-12-18T10:48:25.593Z,29.60
2022-12-18T10:49:35.834Z,29.60
2022-12-18T10:52:21.861Z,29.60
2022-12-18T10:53:30.684Z,29.60
2022-12-18T10:54:34.946Z,29.60
2022-12-18T10:55:41.007Z,29.60
2022-12-18T10:56:44.309Z,29.70
2022-12-18T10:57:47.336Z,29.60
2022-12-18T10:58:59.193Z,29.60
2022-12-18T11:00:25.713Z,29.70
2022-12-18T11:01:29.512Z,29.60
2022-12-18T11:02:37.960Z,29.60
2022-12-18T11:03:40.709Z,29.60
2022-12-18T11:04:52.705Z,29.60
2022-12-18T11:06:05.739Z,29.60
2022-12-18T11:07:11.956Z,29.60
2022-12-18T11:08:24.278Z,29.60
2022-12-18T11:09:32.662Z,29.60
2022-12-18T11:10:40.948Z,29.60
2022-12-18T11:11:50.254Z,29.70
2022-12-18T11:12:54.488Z,29.70
2022-12-18T11:14:29.190Z,29.60
2022-12-18T11:15:37.038Z,29.60
2022-12-18T11:16:57.990Z,29.60
2022-12-18T11:18:24.595Z,29.60
2022-12-18T11:19:38.888Z,29.60
2022-12-18T11:20:42.352Z,29.70
2022-12-18T11:21:46.281Z,29.60
2022-12-18T11:23:05.215Z,29.60
2022-12-18T11:24:33.250Z,29.60
2022-12-18T11:25:36.653Z,29.60
2022-12-18T11:26:44.433Z,29.60
2022-12-18T11:27:55.714Z,29.60
2022-12-18T11:29:17.957Z,29.60
2022-12-18T11:30:34.179Z,29.60
2022-12-18T11:31:37.161Z,29.70
2022-12-18T11:32:49.274Z,30.00
2022-12-18T11:34:28.048Z,29.70
2022-12-18T11:35:55.969Z,29.60
2022-12-18T11:37:04.115Z,29.70
2022-12-18T11:38:28.272Z,29.60
2022-12-18T11:39:40.638Z,29.60
2022-12-18T11:40:46.644Z,29.60
2022-12-18T11:42:23.820Z,29.60
2022-12-18T11:43:43.236Z,29.70
2022-12-18T11:44:54.907Z,29.60
2022-12-18T11:46:25.650Z,29.60
2022-12-18T11:47:59.275Z,29.70
2022-12-18T11:49:41.828Z,29.70
2022-12-18T11:50:53.388Z,29.70
2022-12-18T11:52:05.813Z,29.70
2022-12-18T11:53:14.293Z,29.70
2022-12-18T11:54:17.671Z,29.70
2022-12-18T11:55:47.253Z,29.70
2022-12-18T11:57:31.748Z,29.60
2022-12-18T11:58:45.988Z,29.60
2022-12-18T12:00:11.016Z,29.60
2022-12-18T12:01:43.380Z,29.60
2022-12-18T12:03:27.928Z,29.70
2022-12-18T12:04:57.279Z,29.70
2022-12-18T12:06:11.579Z,29.70
2022-12-18T12:07:35.737Z,29.70
2022-12-18T12:09:02.191Z,29.70
2022-12-18T12:10:07.485Z,29.70
2022-12-18T12:11:39.387Z,29.70
2022-12-18T12:13:13.766Z,29.70
2022-12-18T12:14:42.375Z,29.70
2022-12-18T12:15:54.208Z,29.70
2022-12-18T12:17:23.585Z,29.70
2022-12-18T12:18:51.234Z,29.70
2022-12-18T12:20:09.696Z,29.70
2022-12-18T12:21:22.236Z,29.70
2022-12-18T12:22:33.965Z,29.70
2022-12-18T12:23:57.555Z,29.70
2022-12-18T12:25:21.300Z,29.70
2022-12-18T12:26:36.252Z,29.70
2022-12-18T12:28:32.667Z,29.70
2022-12-18T12:29:59.845Z,29.60
2022-12-18T12:31:42.986Z,29.70
2022-12-18T12:32:49.578Z,29.70
2022-12-18T12:34:10.918Z,29.70
2022-12-18T12:35:43.789Z,29.70
2022-12-18T12:37:09.316Z,30.10
2022-12-18T12:38:18.800Z,29.70
2022-12-18T12:39:31.175Z,29.70
2022-12-18T12:40:52.656Z,30.00
2022-12-18T12:42:18.512Z,29.70
2022-12-18T12:43:50.285Z,29.70
2022-12-18T12:44:58.006Z,29.70
2022-12-18T12:46:09.908Z,29.70
2022-12-18T12:47:26.462Z,29.70
2022-12-18T12:48:46.445Z,29.70
2022-12-18T12:49:51.598Z,29.70
2022-12-18T12:50:57.399Z,29.70
2022-12-18T12:52:08.472Z,29.70
2022-12-18T12:53:24.453Z,29.70
2022-12-18T12:54:29.299Z,29.70
2022-12-18T12:55:32.456Z,29.70
2022-12-18T12:56:47.753Z,29.70
2022-12-18T12:58:07.698Z,29.70
2022-12-18T12:59:57.983Z,29.70
2022-12-18T13:01:23.535Z,29.70
2022-12-18T13:02:59.771Z,29.80
2022-12-18T13:04:10.366Z,29.70
2022-12-18T13:05:54.718Z,29.70
2022-12-18T13:07:11.421Z,29.80
2022-12-18T13:08:27.351Z,29.70
2022-12-18T13:09:34.927Z,29.70
2022-12-18T13:10:42.941Z,29.70
2022-12-18T13:12:16.910Z,29.70
2022-12-18T13:13:23.626Z,29.70
2022-12-18T13:14:41.171Z,29.80
2022-12-18T13:15:51.481Z,29.70
2022-12-18T13:17:21.911Z,29.70
2022-12-18T13:18:27.296Z,29.70
2022-12-18T13:19:29.744Z,29.70
2022-12-18T13:20:50.835Z,29.70
2022-12-18T13:21:58.330Z,29.70
2022-12-18T13:23:24.709Z,29.70
2022-12-18T13:24:31.395Z,29.80
2022-12-18T13:25:37.167Z,29.70
2022-12-18T13:26:39.680Z,29.70
2022-12-18T13:27:45.433Z,29.70
2022-12-18T13:28:49.439Z,29.80
2022-12-18T13:29:54.059Z,29.70
2022-12-18T13:30:58.801Z,29.70
2022-12-18T13:32:01.900Z,29.80
2022-12-18T13:33:19.533Z,29.70
2022-12-18T13:34:27.514Z,29.70
2022-12-18T13:35:30.910Z,29.70
2022-12-18T13:36:36.272Z,29.80
2022-12-18T13:37:45.410Z,30.20
2022-12-18T13:38:49.330Z,29.80
2022-12-18T13:39:52.088Z,29.70
2022-12-18T13:40:57.287Z,29.80
2022-12-18T13:42:08.664Z,29.70
2022-12-18T13:43:19.979Z,29.80
2022-12-18T13:44:40.910Z,29.80
2022-12-18T13:46:05.356Z,29.80
2022-12-18T13:47:39.237Z,29.80
2022-12-18T13:49:02.257Z,29.80
2022-12-18T13:50:32.299Z,29.80
2022-12-18T13:51:51.162Z,29.80
2022-12-18T13:52:56.338Z,29.80
2022-12-18T13:54:02.085Z,29.80
2022-12-18T13:55:15.712Z,29.80
2022-12-18T13:56:22.462Z,29.80
2022-12-18T13:57:36.312Z,29.80
2022-12-18T13:58:39.535Z,29.70
2022-12-18T13:59:43.849Z,29.80
2022-12-18T14:00:46.970Z,29.80
2022-12-18T14:01:56.339Z,29.80
2022-12-18T14:03:22.585Z,29.80
2022-12-18T14:04:34.261Z,29.80
2022-12-18T14:05:38.740Z,29.80
2022-12-18T14:06:44.080Z,29.80
2022-12-18T14:07:51.540Z,29.70
2022-12-18T14:08:56.313Z,29.90
2022-12-18T14:10:40.813Z,29.80
2022-12-18T14:11:28.487Z,29.80
2022-12-18T14:12:52.818Z,29.80
2022-12-18T14:13:55.681Z,29.80
2022-12-18T14:14:59.502Z,29.80
2022-12-18T14:16:06.490Z,29.80
2022-12-18T14:17:14.885Z,29.80
2022-12-18T14:18:22.936Z,29.70
2022-12-18T14:19:27.267Z,29.80
2022-12-18T14:20:33.488Z,29.80
2022-12-18T14:21:39.386Z,29.80
2022-12-18T14:22:48.055Z,29.80
2022-12-18T14:24:05.987Z,29.80
2022-12-18T14:25:16.295Z,29.80
2022-12-18T14:26:25.261Z,29.80
2022-12-18T14:27:28.259Z,29.80
2022-12-18T14:28:32.223Z,29.80
2022-12-18T14:29:36.080Z,29.80
2022-12-18T14:30:43.655Z,29.80
2022-12-18T14:31:46.109Z,29.80
2022-12-18T14:33:10.658Z,29.80
2022-12-18T14:34:17.496Z,29.80
2022-12-18T14:35:20.323Z,29.80
2022-12-18T14:36:25.653Z,29.80
2022-12-18T14:37:28.786Z,29.80
2022-12-18T14:38:39.218Z,29.80
2022-12-18T14:39:52.958Z,29.80
2022-12-18T14:40:58.359Z,29.70
2022-12-18T14:42:01.164Z,29.80
2022-12-18T14:43:05.541Z,29.80
2022-12-18T14:44:14.274Z,29.80
2022-12-18T14:45:43.253Z,29.80
2022-12-18T14:46:48.496Z,29.80
2022-12-18T14:47:52.435Z,29.80
2022-12-18T14:48:55.864Z,29.80
2022-12-18T14:49:58.851Z,29.80
2022-12-18T14:51:04.279Z,29.80
2022-12-18T14:52:19.937Z,29.80
2022-12-18T14:53:38.733Z,29.80
2022-12-18T14:54:48.230Z,29.80
2022-12-18T14:55:51.109Z,29.90
2022-12-18T14:57:20.386Z,29.80
2022-12-18T14:58:24.586Z,29.80
2022-12-18T14:59:31.382Z,29.80